CXBKX YTWB-YBCV
Flight info
| Callsign | CXBKX |
|---|---|
| Flight time | 2h 6m |
| Altitude | 8000 |
| Route | OK W356 CV |
| Aircraft | C182/L-SDGRY/S |
Departure
| Time | 2026-04-25 11:34 |
|---|---|
| Airport | Toowoomba Airport (YTWB) |
Arrival
| Time | 2026-04-25 13:41 |
|---|---|
| Airport | Charleville Airport (YBCV) |
| Time | Latitude | Longitude | Altitude | Speed | Heading |
|---|---|---|---|---|---|
| 2026-04-25 11:25 | -27.54437 | 151.91878 | 2111 ft | 0 kts | 203° |
| 2026-04-25 11:28 | -27.54438 | 151.91871 | 2111 ft | 3 kts | 310° |
| 2026-04-25 11:29 | -27.54392 | 151.91879 | 2110 ft | 9 kts | 18° |
| 2026-04-25 11:29 | -27.54361 | 151.91867 | 2111 ft | 4 kts | 257° |
| 2026-04-25 11:29 | -27.54366 | 151.91843 | 2111 ft | 3 kts | 256° |
| 2026-04-25 11:29 | -27.54367 | 151.91801 | 2112 ft | 9 kts | 289° |
| 2026-04-25 11:30 | -27.54332 | 151.91702 | 2115 ft | 17 kts | 295° |
| 2026-04-25 11:30 | -27.54268 | 151.91578 | 2115 ft | 19 kts | 299° |
| 2026-04-25 11:30 | -27.54208 | 151.91433 | 2112 ft | 20 kts | 296° |
| 2026-04-25 11:30 | -27.54150 | 151.91301 | 2113 ft | 17 kts | 295° |
| 2026-04-25 11:31 | -27.54102 | 151.91205 | 2112 ft | 12 kts | 308° |
| 2026-04-25 11:31 | -27.54059 | 151.91189 | 2113 ft | 3 kts | 19° |
| 2026-04-25 11:31 | -27.54050 | 151.91192 | 2113 ft | 0 kts | 19° |
| 2026-04-25 11:33 | -27.54022 | 151.91185 | 2112 ft | 12 kts | 28° |
| 2026-04-25 11:33 | -27.54072 | 151.91342 | 2114 ft | 41 kts | 118° |
| 2026-04-25 11:34 | -27.54263 | 151.91745 | 2117 ft | 76 kts | 116° |
| 2026-04-25 11:34 | -27.54522 | 151.92315 | 2283 ft | 84 kts | 121° |
| 2026-04-25 11:34 | -27.54807 | 151.92917 | 2541 ft | 87 kts | 121° |
| 2026-04-25 11:34 | -27.55025 | 151.93526 | 2696 ft | 92 kts | 98° |
| 2026-04-25 11:35 | -27.54722 | 151.94230 | 2752 ft | 114 kts | 51° |
| 2026-04-25 11:35 | -27.53918 | 151.94523 | 2887 ft | 129 kts | 13° |
| 2026-04-25 11:35 | -27.53012 | 151.94350 | 3040 ft | 137 kts | 351° |
| 2026-04-25 11:35 | -27.52245 | 151.93720 | 3295 ft | 140 kts | 311° |
| 2026-04-25 11:36 | -27.51805 | 151.92744 | 3423 ft | 141 kts | 291° |
| 2026-04-25 11:36 | -27.51427 | 151.91740 | 3650 ft | 138 kts | 291° |
| 2026-04-25 11:36 | -27.51046 | 151.90758 | 3796 ft | 139 kts | 292° |
| 2026-04-25 11:36 | -27.50645 | 151.89760 | 3969 ft | 140 kts | 294° |
| 2026-04-25 11:37 | -27.50233 | 151.88761 | 4121 ft | 141 kts | 294° |
| 2026-04-25 11:37 | -27.49809 | 151.87762 | 4281 ft | 141 kts | 296° |
| 2026-04-25 11:37 | -27.49423 | 151.86747 | 4411 ft | 142 kts | 278° |
| 2026-04-25 11:37 | -27.49353 | 151.85658 | 4565 ft | 140 kts | 275° |
| 2026-04-25 11:38 | -27.48891 | 151.84693 | 4690 ft | 141 kts | 318° |
| 2026-04-25 11:38 | -27.48208 | 151.83907 | 4871 ft | 141 kts | 320° |
| 2026-04-25 11:38 | -27.47538 | 151.83102 | 5024 ft | 141 kts | 319° |
| 2026-04-25 11:38 | -27.46871 | 151.82285 | 5153 ft | 142 kts | 319° |
| 2026-04-25 11:39 | -27.46203 | 151.81459 | 5304 ft | 143 kts | 318° |
| 2026-04-25 11:39 | -27.45536 | 151.80639 | 5483 ft | 142 kts | 319° |
| 2026-04-25 11:39 | -27.44869 | 151.79818 | 5631 ft | 141 kts | 318° |
| 2026-04-25 11:39 | -27.44221 | 151.79017 | 5778 ft | 140 kts | 318° |
| 2026-04-25 11:40 | -27.43561 | 151.78205 | 5907 ft | 141 kts | 317° |
| 2026-04-25 11:40 | -27.42902 | 151.77392 | 6056 ft | 140 kts | 318° |
| 2026-04-25 11:40 | -27.42244 | 151.76582 | 6202 ft | 140 kts | 318° |
| 2026-04-25 11:40 | -27.41587 | 151.75773 | 6336 ft | 140 kts | 319° |
| 2026-04-25 11:41 | -27.40927 | 151.74960 | 6455 ft | 141 kts | 319° |
| 2026-04-25 11:41 | -27.40264 | 151.74143 | 6585 ft | 141 kts | 318° |
| 2026-04-25 11:41 | -27.39823 | 151.73148 | 6708 ft | 145 kts | 280° |
| 2026-04-25 11:41 | -27.39680 | 151.72035 | 6866 ft | 143 kts | 276° |
| 2026-04-25 11:42 | -27.39521 | 151.70927 | 6987 ft | 144 kts | 278° |
| 2026-04-25 11:42 | -27.39353 | 151.69823 | 7111 ft | 143 kts | 278° |
| 2026-04-25 11:42 | -27.39182 | 151.68720 | 7232 ft | 143 kts | 278° |
| 2026-04-25 11:42 | -27.39011 | 151.67616 | 7345 ft | 143 kts | 278° |
| 2026-04-25 11:43 | -27.38839 | 151.66511 | 7462 ft | 144 kts | 278° |
| 2026-04-25 11:43 | -27.38666 | 151.65405 | 7595 ft | 143 kts | 278° |
| 2026-04-25 11:43 | -27.38494 | 151.64301 | 7712 ft | 143 kts | 278° |
| 2026-04-25 11:43 | -27.38322 | 151.63197 | 7827 ft | 143 kts | 278° |
| 2026-04-25 11:44 | -27.38150 | 151.62096 | 7932 ft | 143 kts | 279° |
| 2026-04-25 11:44 | -27.37977 | 151.60993 | 8017 ft | 143 kts | 279° |
| 2026-04-25 11:44 | -27.37805 | 151.59887 | 8119 ft | 143 kts | 278° |
| 2026-04-25 11:44 | -27.37633 | 151.58785 | 8227 ft | 143 kts | 279° |
| 2026-04-25 11:45 | -27.37463 | 151.57699 | 8312 ft | 144 kts | 278° |
| 2026-04-25 11:45 | -27.37286 | 151.56567 | 8315 ft | 149 kts | 279° |
| 2026-04-25 11:45 | -27.37104 | 151.55403 | 8322 ft | 153 kts | 279° |
| 2026-04-25 11:45 | -27.36917 | 151.54211 | 8322 ft | 156 kts | 278° |
| 2026-04-25 11:46 | -27.36728 | 151.53003 | 8324 ft | 157 kts | 278° |
| 2026-04-25 11:46 | -27.36536 | 151.51780 | 8317 ft | 159 kts | 279° |
| 2026-04-25 11:46 | -27.36343 | 151.50553 | 8317 ft | 159 kts | 278° |
| 2026-04-25 11:46 | -27.36150 | 151.49324 | 8297 ft | 163 kts | 278° |
| 2026-04-25 11:47 | -27.35947 | 151.48024 | 8181 ft | 173 kts | 278° |
| 2026-04-25 11:47 | -27.35733 | 151.46666 | 8066 ft | 179 kts | 279° |
| 2026-04-25 11:47 | -27.35514 | 151.45281 | 8004 ft | 179 kts | 278° |
| 2026-04-25 11:47 | -27.35298 | 151.43908 | 8000 ft | 177 kts | 279° |
| 2026-04-25 11:48 | -27.35083 | 151.42553 | 8000 ft | 175 kts | 278° |
| 2026-04-25 11:48 | -27.34871 | 151.41207 | 8000 ft | 174 kts | 279° |
| 2026-04-25 11:48 | -27.34661 | 151.39870 | 7998 ft | 174 kts | 279° |
| 2026-04-25 11:48 | -27.34449 | 151.38532 | 7999 ft | 174 kts | 279° |
| 2026-04-25 11:49 | -27.34238 | 151.37197 | 7998 ft | 173 kts | 278° |
| 2026-04-25 11:49 | -27.34027 | 151.35864 | 7998 ft | 174 kts | 278° |
| 2026-04-25 11:49 | -27.33815 | 151.34525 | 7999 ft | 174 kts | 279° |
| 2026-04-25 11:49 | -27.33602 | 151.33183 | 7996 ft | 174 kts | 278° |
| 2026-04-25 11:50 | -27.33391 | 151.31850 | 7997 ft | 173 kts | 279° |
| 2026-04-25 11:50 | -27.33179 | 151.30513 | 7999 ft | 173 kts | 279° |
| 2026-04-25 11:50 | -27.32968 | 151.29179 | 7998 ft | 173 kts | 278° |
| 2026-04-25 11:50 | -27.32760 | 151.27869 | 7999 ft | 173 kts | 278° |
| 2026-04-25 11:51 | -27.32548 | 151.26537 | 8001 ft | 172 kts | 278° |
| 2026-04-25 11:51 | -27.32337 | 151.25208 | 7998 ft | 173 kts | 279° |
| 2026-04-25 11:51 | -27.32125 | 151.23875 | 7999 ft | 173 kts | 279° |
| 2026-04-25 11:51 | -27.31913 | 151.22544 | 7997 ft | 173 kts | 278° |
| 2026-04-25 11:52 | -27.31701 | 151.21210 | 7998 ft | 173 kts | 279° |
| 2026-04-25 11:52 | -27.31488 | 151.19879 | 7995 ft | 173 kts | 279° |
| 2026-04-25 11:52 | -27.31276 | 151.18551 | 7994 ft | 172 kts | 278° |
| 2026-04-25 11:52 | -27.31065 | 151.17226 | 7995 ft | 172 kts | 278° |
| 2026-04-25 11:53 | -27.30854 | 151.15903 | 7992 ft | 172 kts | 278° |
| 2026-04-25 11:53 | -27.30643 | 151.14583 | 7995 ft | 172 kts | 278° |
| 2026-04-25 11:53 | -27.30431 | 151.13257 | 7996 ft | 172 kts | 278° |
| 2026-04-25 11:53 | -27.30219 | 151.11933 | 7994 ft | 172 kts | 278° |
| 2026-04-25 11:54 | -27.30008 | 151.10616 | 7994 ft | 172 kts | 278° |
| 2026-04-25 11:54 | -27.29797 | 151.09297 | 7995 ft | 171 kts | 278° |
| 2026-04-25 11:54 | -27.29377 | 151.06678 | 7993 ft | 170 kts | 278° |
| 2026-04-25 11:55 | -27.29167 | 151.05367 | 7995 ft | 170 kts | 279° |
| 2026-04-25 11:55 | -27.28959 | 151.04074 | 7993 ft | 170 kts | 278° |
| 2026-04-25 11:55 | -27.28749 | 151.02764 | 7988 ft | 170 kts | 278° |
| 2026-04-25 11:55 | -27.28538 | 151.01455 | 7993 ft | 170 kts | 278° |
| 2026-04-25 11:56 | -27.28328 | 151.00150 | 7990 ft | 170 kts | 279° |
| 2026-04-25 11:56 | -27.28119 | 150.98846 | 7995 ft | 170 kts | 278° |
| 2026-04-25 11:56 | -27.27909 | 150.97542 | 7994 ft | 169 kts | 278° |
| 2026-04-25 11:56 | -27.27698 | 150.96238 | 7988 ft | 169 kts | 278° |
| 2026-04-25 11:57 | -27.27488 | 150.94934 | 7988 ft | 169 kts | 278° |
| 2026-04-25 11:57 | -27.27278 | 150.93631 | 7990 ft | 170 kts | 278° |
| 2026-04-25 11:57 | -27.27067 | 150.92329 | 7990 ft | 169 kts | 278° |
| 2026-04-25 11:57 | -27.26858 | 150.91029 | 7993 ft | 168 kts | 278° |
| 2026-04-25 11:58 | -27.26648 | 150.89736 | 7993 ft | 168 kts | 278° |
| 2026-04-25 11:58 | -27.26439 | 150.88442 | 7992 ft | 168 kts | 278° |
| 2026-04-25 11:58 | -27.26230 | 150.87150 | 7994 ft | 168 kts | 278° |
| 2026-04-25 11:58 | -27.26020 | 150.85852 | 7994 ft | 169 kts | 278° |
| 2026-04-25 11:59 | -27.25813 | 150.84574 | 7992 ft | 169 kts | 278° |
| 2026-04-25 11:59 | -27.25603 | 150.83279 | 7996 ft | 169 kts | 278° |
| 2026-04-25 11:59 | -27.25392 | 150.81982 | 7995 ft | 169 kts | 278° |
| 2026-04-25 12:00 | -27.24970 | 150.79381 | 7990 ft | 169 kts | 278° |
| 2026-04-25 12:00 | -27.24758 | 150.78081 | 7994 ft | 169 kts | 278° |
| 2026-04-25 12:00 | -27.24337 | 150.75495 | 7991 ft | 168 kts | 278° |
| 2026-04-25 12:01 | -27.24127 | 150.74204 | 7992 ft | 168 kts | 278° |
| 2026-04-25 12:01 | -27.23917 | 150.72916 | 7993 ft | 168 kts | 278° |
| 2026-04-25 12:01 | -27.23707 | 150.71625 | 7993 ft | 168 kts | 278° |
| 2026-04-25 12:01 | -27.23496 | 150.70335 | 7990 ft | 167 kts | 279° |
| 2026-04-25 12:02 | -27.23076 | 150.67764 | 7990 ft | 167 kts | 278° |
| 2026-04-25 12:02 | -27.22866 | 150.66477 | 7990 ft | 167 kts | 279° |
| 2026-04-25 12:02 | -27.22656 | 150.65193 | 7989 ft | 167 kts | 278° |
| 2026-04-25 12:03 | -27.22446 | 150.63907 | 7990 ft | 168 kts | 278° |
| 2026-04-25 12:03 | -27.22234 | 150.62617 | 7989 ft | 168 kts | 278° |
| 2026-04-25 12:03 | -27.22023 | 150.61326 | 7992 ft | 168 kts | 278° |
| 2026-04-25 12:03 | -27.21812 | 150.60038 | 7992 ft | 168 kts | 278° |
| 2026-04-25 12:04 | -27.21600 | 150.58746 | 7991 ft | 168 kts | 278° |
| 2026-04-25 12:04 | -27.21388 | 150.57453 | 7992 ft | 168 kts | 278° |
| 2026-04-25 12:04 | -27.21176 | 150.56163 | 7996 ft | 168 kts | 278° |
| 2026-04-25 12:04 | -27.20966 | 150.54890 | 7988 ft | 167 kts | 278° |
| 2026-04-25 12:05 | -27.20756 | 150.53609 | 7991 ft | 167 kts | 278° |
| 2026-04-25 12:05 | -27.20544 | 150.52323 | 7992 ft | 167 kts | 278° |
| 2026-04-25 12:05 | -27.20332 | 150.51038 | 7993 ft | 168 kts | 278° |
| 2026-04-25 12:05 | -27.20120 | 150.49748 | 7999 ft | 167 kts | 278° |
| 2026-04-25 12:06 | -27.19909 | 150.48467 | 7996 ft | 167 kts | 278° |
| 2026-04-25 12:06 | -27.19698 | 150.47185 | 7995 ft | 167 kts | 278° |
| 2026-04-25 12:06 | -27.19486 | 150.45900 | 7996 ft | 167 kts | 278° |
| 2026-04-25 12:06 | -27.19273 | 150.44611 | 7998 ft | 168 kts | 278° |
| 2026-04-25 12:07 | -27.19059 | 150.43317 | 7999 ft | 169 kts | 278° |
| 2026-04-25 12:07 | -27.18846 | 150.42026 | 7995 ft | 167 kts | 278° |
| 2026-04-25 12:07 | -27.18634 | 150.40741 | 8001 ft | 167 kts | 278° |
| 2026-04-25 12:07 | -27.18420 | 150.39455 | 7995 ft | 167 kts | 278° |
| 2026-04-25 12:08 | -27.18210 | 150.38186 | 7997 ft | 168 kts | 278° |
| 2026-04-25 12:08 | -27.17997 | 150.36900 | 7995 ft | 168 kts | 278° |
| 2026-04-25 12:08 | -27.17784 | 150.35612 | 7994 ft | 168 kts | 278° |
| 2026-04-25 12:08 | -27.17571 | 150.34326 | 7996 ft | 167 kts | 278° |
| 2026-04-25 12:09 | -27.17357 | 150.33038 | 7995 ft | 168 kts | 278° |
| 2026-04-25 12:09 | -27.17142 | 150.31744 | 7994 ft | 169 kts | 278° |
| 2026-04-25 12:09 | -27.16927 | 150.30452 | 7996 ft | 169 kts | 278° |
| 2026-04-25 12:09 | -27.16712 | 150.29156 | 7996 ft | 169 kts | 278° |
| 2026-04-25 12:10 | -27.16496 | 150.27860 | 7991 ft | 167 kts | 278° |
| 2026-04-25 12:10 | -27.16283 | 150.26579 | 7992 ft | 167 kts | 278° |
| 2026-04-25 12:10 | -27.16071 | 150.25305 | 7991 ft | 166 kts | 278° |
| 2026-04-25 12:10 | -27.15858 | 150.24032 | 7992 ft | 166 kts | 278° |
| 2026-04-25 12:11 | -27.15717 | 150.23185 | 7991 ft | 166 kts | 278° |
| 2026-04-25 12:11 | -27.15504 | 150.21909 | 7993 ft | 167 kts | 278° |
| 2026-04-25 12:11 | -27.15289 | 150.20620 | 7993 ft | 168 kts | 278° |
| 2026-04-25 12:11 | -27.15074 | 150.19333 | 7991 ft | 168 kts | 278° |
| 2026-04-25 12:12 | -27.14859 | 150.18044 | 7996 ft | 168 kts | 278° |
| 2026-04-25 12:12 | -27.14643 | 150.16754 | 7994 ft | 168 kts | 278° |
| 2026-04-25 12:12 | -27.14428 | 150.15467 | 7998 ft | 167 kts | 278° |
| 2026-04-25 12:12 | -27.14213 | 150.14184 | 7998 ft | 167 kts | 278° |
| 2026-04-25 12:13 | -27.13998 | 150.12898 | 7995 ft | 168 kts | 278° |
| 2026-04-25 12:13 | -27.13781 | 150.11606 | 7999 ft | 168 kts | 278° |
| 2026-04-25 12:13 | -27.13564 | 150.10315 | 8000 ft | 169 kts | 278° |
| 2026-04-25 12:13 | -27.13346 | 150.09015 | 8005 ft | 170 kts | 278° |
| 2026-04-25 12:14 | -27.13128 | 150.07714 | 8004 ft | 169 kts | 278° |
| 2026-04-25 12:14 | -27.12911 | 150.06421 | 8002 ft | 168 kts | 278° |
| 2026-04-25 12:14 | -27.12697 | 150.05148 | 8003 ft | 168 kts | 278° |
| 2026-04-25 12:14 | -27.12481 | 150.03864 | 8001 ft | 168 kts | 278° |
| 2026-04-25 12:15 | -27.12264 | 150.02578 | 8003 ft | 167 kts | 278° |
| 2026-04-25 12:15 | -27.12048 | 150.01290 | 8003 ft | 168 kts | 278° |
| 2026-04-25 12:15 | -27.11830 | 149.99997 | 8005 ft | 168 kts | 278° |
| 2026-04-25 12:15 | -27.11612 | 149.98707 | 8004 ft | 168 kts | 278° |
| 2026-04-25 12:16 | -27.11395 | 149.97418 | 8001 ft | 168 kts | 278° |
| 2026-04-25 12:16 | -27.11177 | 149.96125 | 8002 ft | 168 kts | 278° |
| 2026-04-25 12:16 | -27.10958 | 149.94831 | 8005 ft | 169 kts | 278° |
| 2026-04-25 12:16 | -27.10739 | 149.93537 | 8003 ft | 169 kts | 278° |
| 2026-04-25 12:17 | -27.10521 | 149.92244 | 8002 ft | 169 kts | 278° |
| 2026-04-25 12:17 | -27.10301 | 149.90946 | 8000 ft | 169 kts | 278° |
| 2026-04-25 12:17 | -27.10081 | 149.89648 | 8005 ft | 169 kts | 278° |
| 2026-04-25 12:17 | -27.09860 | 149.88346 | 8003 ft | 170 kts | 278° |
| 2026-04-25 12:18 | -27.09636 | 149.87047 | 7999 ft | 170 kts | 278° |
| 2026-04-25 12:18 | -27.09410 | 149.85745 | 7991 ft | 170 kts | 278° |
| 2026-04-25 12:18 | -27.09185 | 149.84445 | 7992 ft | 169 kts | 278° |
| 2026-04-25 12:18 | -27.08962 | 149.83148 | 7994 ft | 169 kts | 278° |
| 2026-04-25 12:19 | -27.08590 | 149.81003 | 7993 ft | 168 kts | 278° |
| 2026-04-25 12:19 | -27.08294 | 149.79285 | 7992 ft | 169 kts | 278° |
| 2026-04-25 12:19 | -27.08070 | 149.77993 | 7990 ft | 169 kts | 278° |
| 2026-04-25 12:20 | -27.07847 | 149.76701 | 7994 ft | 169 kts | 278° |
| 2026-04-25 12:20 | -27.07623 | 149.75405 | 7995 ft | 169 kts | 278° |
| 2026-04-25 12:20 | -27.07397 | 149.74108 | 7996 ft | 169 kts | 278° |
| 2026-04-25 12:20 | -27.07172 | 149.72806 | 7993 ft | 169 kts | 278° |
| 2026-04-25 12:21 | -27.06947 | 149.71512 | 7991 ft | 169 kts | 278° |
| 2026-04-25 12:21 | -27.06721 | 149.70211 | 7991 ft | 170 kts | 278° |
| 2026-04-25 12:21 | -27.06495 | 149.68912 | 7988 ft | 169 kts | 278° |
| 2026-04-25 12:21 | -27.06272 | 149.67624 | 7996 ft | 169 kts | 278° |
| 2026-04-25 12:22 | -27.06047 | 149.66330 | 7994 ft | 169 kts | 278° |
| 2026-04-25 12:22 | -27.05823 | 149.65043 | 7994 ft | 168 kts | 278° |
| 2026-04-25 12:22 | -27.05599 | 149.63756 | 7993 ft | 168 kts | 279° |
| 2026-04-25 12:22 | -27.05375 | 149.62472 | 7993 ft | 168 kts | 278° |
| 2026-04-25 12:23 | -27.05150 | 149.61185 | 7994 ft | 167 kts | 278° |
| 2026-04-25 12:23 | -27.04930 | 149.59926 | 7990 ft | 167 kts | 278° |
| 2026-04-25 12:23 | -27.04707 | 149.58647 | 7989 ft | 167 kts | 278° |
| 2026-04-25 12:23 | -27.04484 | 149.57369 | 7992 ft | 167 kts | 279° |
| 2026-04-25 12:24 | -27.04261 | 149.56090 | 7993 ft | 167 kts | 278° |
| 2026-04-25 12:24 | -27.04036 | 149.54805 | 7989 ft | 168 kts | 278° |
| 2026-04-25 12:24 | -27.03811 | 149.53519 | 7991 ft | 168 kts | 279° |
| 2026-04-25 12:24 | -27.03586 | 149.52229 | 7989 ft | 168 kts | 279° |
| 2026-04-25 12:25 | -27.03361 | 149.50944 | 7997 ft | 169 kts | 279° |
| 2026-04-25 12:25 | -27.03134 | 149.49651 | 7997 ft | 169 kts | 279° |
| 2026-04-25 12:25 | -27.02908 | 149.48359 | 7996 ft | 169 kts | 279° |
| 2026-04-25 12:25 | -27.02680 | 149.47058 | 7997 ft | 170 kts | 279° |
| 2026-04-25 12:26 | -27.02452 | 149.45760 | 7996 ft | 170 kts | 279° |
| 2026-04-25 12:26 | -27.02224 | 149.44463 | 7998 ft | 170 kts | 279° |
| 2026-04-25 12:26 | -27.01995 | 149.43160 | 7996 ft | 170 kts | 279° |
| 2026-04-25 12:26 | -27.01766 | 149.41858 | 7997 ft | 170 kts | 279° |
| 2026-04-25 12:27 | -27.01538 | 149.40557 | 7995 ft | 170 kts | 279° |
| 2026-04-25 12:27 | -27.01309 | 149.39255 | 7991 ft | 170 kts | 279° |
| 2026-04-25 12:27 | -27.01079 | 149.37952 | 7998 ft | 170 kts | 279° |
| 2026-04-25 12:27 | -27.00849 | 149.36650 | 7995 ft | 170 kts | 279° |
| 2026-04-25 12:28 | -27.00621 | 149.35357 | 7993 ft | 169 kts | 279° |
| 2026-04-25 12:28 | -27.00392 | 149.34058 | 7993 ft | 170 kts | 279° |
| 2026-04-25 12:28 | -27.00163 | 149.32756 | 7992 ft | 171 kts | 279° |
| 2026-04-25 12:28 | -26.99932 | 149.31447 | 7989 ft | 171 kts | 279° |
| 2026-04-25 12:29 | -26.99702 | 149.30145 | 7992 ft | 170 kts | 279° |
| 2026-04-25 12:29 | -26.99473 | 149.28846 | 7991 ft | 169 kts | 279° |
| 2026-04-25 12:29 | -26.99243 | 149.27550 | 7990 ft | 169 kts | 279° |
| 2026-04-25 12:29 | -26.99012 | 149.26250 | 7996 ft | 171 kts | 279° |
| 2026-04-25 12:30 | -26.98782 | 149.24947 | 7995 ft | 171 kts | 279° |
| 2026-04-25 12:30 | -26.98553 | 149.23655 | 7990 ft | 171 kts | 279° |
| 2026-04-25 12:30 | -26.98321 | 149.22348 | 7994 ft | 170 kts | 279° |
| 2026-04-25 12:30 | -26.98091 | 149.21048 | 7989 ft | 170 kts | 279° |
| 2026-04-25 12:31 | -26.97859 | 149.19744 | 7991 ft | 170 kts | 279° |
| 2026-04-25 12:31 | -26.97629 | 149.18444 | 7992 ft | 170 kts | 279° |
| 2026-04-25 12:31 | -26.97398 | 149.17147 | 7990 ft | 170 kts | 279° |
| 2026-04-25 12:31 | -26.97167 | 149.15844 | 7990 ft | 170 kts | 279° |
| 2026-04-25 12:32 | -26.96936 | 149.14547 | 7990 ft | 170 kts | 279° |
| 2026-04-25 12:32 | -26.96706 | 149.13252 | 7990 ft | 169 kts | 279° |
| 2026-04-25 12:32 | -26.96475 | 149.11958 | 7991 ft | 169 kts | 279° |
| 2026-04-25 12:32 | -26.96244 | 149.10665 | 7988 ft | 169 kts | 279° |
| 2026-04-25 12:33 | -26.96015 | 149.09375 | 7990 ft | 169 kts | 279° |
| 2026-04-25 12:33 | -26.95783 | 149.08076 | 7989 ft | 169 kts | 279° |
| 2026-04-25 12:33 | -26.95552 | 149.06782 | 7989 ft | 169 kts | 279° |
| 2026-04-25 12:33 | -26.95321 | 149.05490 | 7987 ft | 169 kts | 279° |
| 2026-04-25 12:34 | -26.95089 | 149.04193 | 7988 ft | 170 kts | 279° |
| 2026-04-25 12:34 | -26.94861 | 149.02914 | 7987 ft | 169 kts | 279° |
| 2026-04-25 12:34 | -26.94629 | 149.01621 | 7983 ft | 169 kts | 279° |
| 2026-04-25 12:34 | -26.94474 | 149.00748 | 7988 ft | 169 kts | 279° |
| 2026-04-25 12:35 | -26.94167 | 148.99038 | 8002 ft | 169 kts | 279° |
| 2026-04-25 12:35 | -26.93936 | 148.97748 | 8012 ft | 169 kts | 279° |
| 2026-04-25 12:35 | -26.93705 | 148.96457 | 8009 ft | 169 kts | 279° |
| 2026-04-25 12:35 | -26.93473 | 148.95163 | 8003 ft | 169 kts | 279° |
| 2026-04-25 12:36 | -26.93240 | 148.93864 | 8006 ft | 170 kts | 279° |
| 2026-04-25 12:36 | -26.93006 | 148.92562 | 8004 ft | 170 kts | 279° |
| 2026-04-25 12:36 | -26.92772 | 148.91261 | 8008 ft | 170 kts | 279° |
| 2026-04-25 12:36 | -26.92538 | 148.89957 | 8005 ft | 170 kts | 279° |
| 2026-04-25 12:37 | -26.92308 | 148.88680 | 8005 ft | 169 kts | 280° |
| 2026-04-25 12:37 | -26.92076 | 148.87392 | 7999 ft | 169 kts | 280° |
| 2026-04-25 12:37 | -26.91844 | 148.86101 | 8000 ft | 169 kts | 280° |
| 2026-04-25 12:37 | -26.91611 | 148.84809 | 8003 ft | 169 kts | 280° |
| 2026-04-25 12:38 | -26.91380 | 148.83525 | 8003 ft | 168 kts | 280° |
| 2026-04-25 12:38 | -26.91149 | 148.82241 | 8001 ft | 168 kts | 280° |
| 2026-04-25 12:38 | -26.90915 | 148.80953 | 8004 ft | 168 kts | 280° |
| 2026-04-25 12:38 | -26.90683 | 148.79668 | 8004 ft | 169 kts | 280° |
| 2026-04-25 12:39 | -26.90450 | 148.78375 | 8004 ft | 170 kts | 280° |
| 2026-04-25 12:39 | -26.90216 | 148.77080 | 7999 ft | 170 kts | 280° |
| 2026-04-25 12:39 | -26.89981 | 148.75780 | 8001 ft | 170 kts | 280° |
| 2026-04-25 12:39 | -26.89747 | 148.74484 | 8004 ft | 170 kts | 280° |
| 2026-04-25 12:40 | -26.89512 | 148.73186 | 8002 ft | 170 kts | 280° |
| 2026-04-25 12:40 | -26.89277 | 148.71892 | 8005 ft | 169 kts | 280° |
| 2026-04-25 12:40 | -26.89043 | 148.70599 | 8001 ft | 169 kts | 280° |
| 2026-04-25 12:40 | -26.88809 | 148.69307 | 7998 ft | 168 kts | 280° |
| 2026-04-25 12:41 | -26.88576 | 148.68024 | 8001 ft | 169 kts | 280° |
| 2026-04-25 12:41 | -26.88342 | 148.66736 | 8001 ft | 169 kts | 280° |
| 2026-04-25 12:41 | -26.88108 | 148.65447 | 8000 ft | 168 kts | 280° |
| 2026-04-25 12:41 | -26.87878 | 148.64180 | 8002 ft | 169 kts | 280° |
| 2026-04-25 12:42 | -26.87640 | 148.62873 | 8002 ft | 169 kts | 280° |
| 2026-04-25 12:42 | -26.87564 | 148.62455 | 7999 ft | 169 kts | 280° |
| 2026-04-25 12:42 | -26.87175 | 148.60314 | 8000 ft | 168 kts | 280° |
| 2026-04-25 12:42 | -26.86943 | 148.59039 | 7998 ft | 167 kts | 280° |
| 2026-04-25 12:43 | -26.86710 | 148.57762 | 7997 ft | 167 kts | 280° |
| 2026-04-25 12:43 | -26.86478 | 148.56488 | 7995 ft | 167 kts | 280° |
| 2026-04-25 12:43 | -26.86013 | 148.53943 | 7995 ft | 167 kts | 280° |
| 2026-04-25 12:44 | -26.85780 | 148.52660 | 8001 ft | 168 kts | 280° |
| 2026-04-25 12:44 | -26.85546 | 148.51381 | 8001 ft | 168 kts | 280° |
| 2026-04-25 12:44 | -26.85077 | 148.48810 | 7998 ft | 168 kts | 280° |
| 2026-04-25 12:45 | -26.84839 | 148.47521 | 8001 ft | 169 kts | 281° |
| 2026-04-25 12:45 | -26.84602 | 148.46231 | 8001 ft | 169 kts | 280° |
| 2026-04-25 12:45 | -26.84131 | 148.43650 | 8004 ft | 169 kts | 280° |
| 2026-04-25 12:46 | -26.83894 | 148.42357 | 7998 ft | 169 kts | 281° |
| 2026-04-25 12:46 | -26.83661 | 148.41089 | 8000 ft | 169 kts | 280° |
| 2026-04-25 12:46 | -26.83421 | 148.39783 | 7992 ft | 169 kts | 281° |
| 2026-04-25 12:46 | -26.83188 | 148.38514 | 7997 ft | 168 kts | 281° |
| 2026-04-25 12:47 | -26.82953 | 148.37235 | 8001 ft | 168 kts | 281° |
| 2026-04-25 12:47 | -26.82718 | 148.35956 | 7990 ft | 168 kts | 281° |
| 2026-04-25 12:47 | -26.82482 | 148.34671 | 8000 ft | 169 kts | 281° |
| 2026-04-25 12:47 | -26.82244 | 148.33379 | 8002 ft | 169 kts | 281° |
| 2026-04-25 12:48 | -26.82006 | 148.32089 | 7996 ft | 169 kts | 281° |
| 2026-04-25 12:48 | -26.81768 | 148.30800 | 7998 ft | 169 kts | 281° |
| 2026-04-25 12:48 | -26.81532 | 148.29517 | 7996 ft | 168 kts | 281° |
| 2026-04-25 12:48 | -26.81296 | 148.28236 | 7999 ft | 168 kts | 281° |
| 2026-04-25 12:49 | -26.81059 | 148.26953 | 7999 ft | 169 kts | 281° |
| 2026-04-25 12:49 | -26.80822 | 148.25668 | 8001 ft | 169 kts | 281° |
| 2026-04-25 12:49 | -26.80584 | 148.24381 | 7998 ft | 169 kts | 281° |
| 2026-04-25 12:49 | -26.80347 | 148.23099 | 7997 ft | 168 kts | 281° |
| 2026-04-25 12:50 | -26.80111 | 148.21821 | 7990 ft | 167 kts | 281° |
| 2026-04-25 12:50 | -26.79875 | 148.20550 | 7995 ft | 166 kts | 281° |
| 2026-04-25 12:50 | -26.79641 | 148.19285 | 7994 ft | 166 kts | 281° |
| 2026-04-25 12:50 | -26.79408 | 148.18029 | 7994 ft | 167 kts | 281° |
| 2026-04-25 12:51 | -26.79173 | 148.16755 | 7995 ft | 167 kts | 281° |
| 2026-04-25 12:51 | -26.78937 | 148.15476 | 7997 ft | 169 kts | 281° |
| 2026-04-25 12:51 | -26.78697 | 148.14196 | 7990 ft | 167 kts | 281° |
| 2026-04-25 12:51 | -26.78461 | 148.12921 | 7996 ft | 167 kts | 281° |
| 2026-04-25 12:52 | -26.78224 | 148.11644 | 7991 ft | 168 kts | 281° |
| 2026-04-25 12:52 | -26.77986 | 148.10364 | 7993 ft | 168 kts | 281° |
| 2026-04-25 12:52 | -26.77746 | 148.09087 | 7992 ft | 167 kts | 281° |
| 2026-04-25 12:52 | -26.77509 | 148.07813 | 7996 ft | 167 kts | 281° |
| 2026-04-25 12:53 | -26.77270 | 148.06539 | 7996 ft | 167 kts | 281° |
| 2026-04-25 12:53 | -26.77030 | 148.05262 | 7989 ft | 168 kts | 281° |
| 2026-04-25 12:53 | -26.76792 | 148.03988 | 7994 ft | 167 kts | 281° |
| 2026-04-25 12:53 | -26.76552 | 148.02709 | 7991 ft | 168 kts | 281° |
| 2026-04-25 12:54 | -26.76312 | 148.01430 | 7999 ft | 168 kts | 281° |
| 2026-04-25 12:54 | -26.76072 | 148.00150 | 7996 ft | 168 kts | 281° |
| 2026-04-25 12:54 | -26.75832 | 147.98873 | 7990 ft | 167 kts | 281° |
| 2026-04-25 12:54 | -26.75593 | 147.97602 | 7996 ft | 167 kts | 281° |
| 2026-04-25 12:55 | -26.75355 | 147.96330 | 7995 ft | 167 kts | 282° |
| 2026-04-25 12:55 | -26.75277 | 147.95918 | 7995 ft | 167 kts | 282° |
| 2026-04-25 12:55 | -26.74957 | 147.94218 | 7987 ft | 167 kts | 282° |
| 2026-04-25 12:55 | -26.74638 | 147.92521 | 7991 ft | 167 kts | 281° |
| 2026-04-25 12:56 | -26.74400 | 147.91261 | 7996 ft | 168 kts | 281° |
| 2026-04-25 12:56 | -26.74159 | 147.89981 | 7990 ft | 168 kts | 282° |
| 2026-04-25 12:56 | -26.73997 | 147.89118 | 7989 ft | 168 kts | 281° |
| 2026-04-25 12:56 | -26.73759 | 147.87861 | 7989 ft | 167 kts | 282° |
| 2026-04-25 12:57 | -26.73520 | 147.86593 | 7991 ft | 167 kts | 282° |
| 2026-04-25 12:57 | -26.73281 | 147.85326 | 7991 ft | 166 kts | 282° |
| 2026-04-25 12:57 | -26.73041 | 147.84053 | 7986 ft | 167 kts | 282° |
| 2026-04-25 12:57 | -26.72799 | 147.82778 | 7990 ft | 168 kts | 282° |
| 2026-04-25 12:58 | -26.72558 | 147.81501 | 7993 ft | 167 kts | 282° |
| 2026-04-25 12:58 | -26.72317 | 147.80226 | 7986 ft | 168 kts | 282° |
| 2026-04-25 12:58 | -26.72075 | 147.78948 | 7987 ft | 168 kts | 282° |
| 2026-04-25 12:58 | -26.71832 | 147.77663 | 7985 ft | 168 kts | 282° |
| 2026-04-25 12:59 | -26.71590 | 147.76386 | 7988 ft | 167 kts | 282° |
| 2026-04-25 12:59 | -26.71348 | 147.75113 | 7990 ft | 168 kts | 282° |
| 2026-04-25 12:59 | -26.71105 | 147.73830 | 7990 ft | 169 kts | 282° |
| 2026-04-25 12:59 | -26.70862 | 147.72548 | 7992 ft | 169 kts | 282° |
| 2026-04-25 13:00 | -26.70618 | 147.71264 | 7989 ft | 169 kts | 282° |
| 2026-04-25 13:00 | -26.70456 | 147.70413 | 7992 ft | 169 kts | 282° |
| 2026-04-25 13:00 | -26.70133 | 147.68709 | 7988 ft | 168 kts | 282° |
| 2026-04-25 13:00 | -26.69888 | 147.67425 | 7987 ft | 169 kts | 282° |
| 2026-04-25 13:01 | -26.69643 | 147.66139 | 7988 ft | 169 kts | 282° |
| 2026-04-25 13:01 | -26.69399 | 147.64853 | 7989 ft | 169 kts | 282° |
| 2026-04-25 13:01 | -26.69155 | 147.63572 | 7994 ft | 169 kts | 282° |
| 2026-04-25 13:01 | -26.68909 | 147.62285 | 7979 ft | 169 kts | 282° |
| 2026-04-25 13:02 | -26.68665 | 147.61001 | 7987 ft | 169 kts | 282° |
| 2026-04-25 13:02 | -26.68419 | 147.59715 | 7983 ft | 169 kts | 282° |
| 2026-04-25 13:02 | -26.68174 | 147.58429 | 7990 ft | 169 kts | 282° |
| 2026-04-25 13:02 | -26.67929 | 147.57146 | 7987 ft | 168 kts | 282° |
| 2026-04-25 13:03 | -26.67684 | 147.55863 | 7987 ft | 169 kts | 282° |
| 2026-04-25 13:03 | -26.67439 | 147.54580 | 7988 ft | 169 kts | 282° |
| 2026-04-25 13:03 | -26.67197 | 147.53315 | 7986 ft | 168 kts | 282° |
| 2026-04-25 13:03 | -26.66952 | 147.52040 | 7983 ft | 167 kts | 282° |
| 2026-04-25 13:04 | -26.66710 | 147.50773 | 7986 ft | 166 kts | 282° |
| 2026-04-25 13:04 | -26.66467 | 147.49509 | 7984 ft | 167 kts | 282° |
| 2026-04-25 13:04 | -26.66226 | 147.48245 | 7987 ft | 166 kts | 282° |
| 2026-04-25 13:04 | -26.65984 | 147.46975 | 7981 ft | 167 kts | 282° |
| 2026-04-25 13:05 | -26.65740 | 147.45709 | 7979 ft | 166 kts | 282° |
| 2026-04-25 13:05 | -26.65495 | 147.44438 | 7975 ft | 167 kts | 282° |
| 2026-04-25 13:05 | -26.65251 | 147.43164 | 7977 ft | 167 kts | 282° |
| 2026-04-25 13:05 | -26.65008 | 147.41894 | 7976 ft | 168 kts | 282° |
| 2026-04-25 13:06 | -26.64762 | 147.40618 | 7984 ft | 168 kts | 282° |
| 2026-04-25 13:06 | -26.64516 | 147.39342 | 7985 ft | 168 kts | 282° |
| 2026-04-25 13:06 | -26.64273 | 147.38077 | 7985 ft | 168 kts | 282° |
| 2026-04-25 13:06 | -26.64027 | 147.36798 | 7982 ft | 168 kts | 283° |
| 2026-04-25 13:07 | -26.63781 | 147.35522 | 7981 ft | 167 kts | 282° |
| 2026-04-25 13:07 | -26.63538 | 147.34259 | 7983 ft | 167 kts | 282° |
| 2026-04-25 13:07 | -26.63293 | 147.32989 | 7979 ft | 167 kts | 283° |
| 2026-04-25 13:07 | -26.63047 | 147.31719 | 7979 ft | 167 kts | 282° |
| 2026-04-25 13:08 | -26.62804 | 147.30452 | 7978 ft | 167 kts | 282° |
| 2026-04-25 13:08 | -26.62559 | 147.29186 | 7982 ft | 167 kts | 283° |
| 2026-04-25 13:08 | -26.62313 | 147.27915 | 7980 ft | 167 kts | 283° |
| 2026-04-25 13:08 | -26.62068 | 147.26644 | 7983 ft | 167 kts | 283° |
| 2026-04-25 13:09 | -26.61821 | 147.25369 | 7985 ft | 168 kts | 283° |
| 2026-04-25 13:09 | -26.61573 | 147.24087 | 7981 ft | 168 kts | 283° |
| 2026-04-25 13:09 | -26.61327 | 147.22815 | 7985 ft | 167 kts | 283° |
| 2026-04-25 13:09 | -26.61084 | 147.21557 | 7988 ft | 168 kts | 283° |
| 2026-04-25 13:10 | -26.60833 | 147.20263 | 7981 ft | 168 kts | 283° |
| 2026-04-25 13:10 | -26.60589 | 147.19007 | 7982 ft | 168 kts | 283° |
| 2026-04-25 13:10 | -26.60341 | 147.17727 | 7978 ft | 168 kts | 283° |
| 2026-04-25 13:10 | -26.60094 | 147.16452 | 7984 ft | 169 kts | 283° |
| 2026-04-25 13:11 | -26.59844 | 147.15168 | 7983 ft | 169 kts | 283° |
| 2026-04-25 13:11 | -26.59595 | 147.13886 | 7978 ft | 169 kts | 283° |
| 2026-04-25 13:11 | -26.59348 | 147.12612 | 7986 ft | 168 kts | 283° |
| 2026-04-25 13:11 | -26.59099 | 147.11334 | 7982 ft | 168 kts | 283° |
| 2026-04-25 13:12 | -26.58851 | 147.10057 | 7987 ft | 168 kts | 283° |
| 2026-04-25 13:12 | -26.58602 | 147.08779 | 7979 ft | 168 kts | 283° |
| 2026-04-25 13:12 | -26.58355 | 147.07509 | 7979 ft | 167 kts | 283° |
| 2026-04-25 13:12 | -26.58192 | 147.06671 | 7984 ft | 167 kts | 283° |
| 2026-04-25 13:13 | -26.57860 | 147.04971 | 7978 ft | 167 kts | 283° |
| 2026-04-25 13:13 | -26.57615 | 147.03709 | 7981 ft | 167 kts | 283° |
| 2026-04-25 13:13 | -26.57365 | 147.02435 | 7982 ft | 168 kts | 283° |
| 2026-04-25 13:13 | -26.57115 | 147.01157 | 7970 ft | 168 kts | 283° |
| 2026-04-25 13:14 | -26.56868 | 146.99887 | 7975 ft | 168 kts | 283° |
| 2026-04-25 13:14 | -26.56618 | 146.98609 | 7975 ft | 168 kts | 283° |
| 2026-04-25 13:14 | -26.56373 | 146.97350 | 7978 ft | 168 kts | 283° |
| 2026-04-25 13:14 | -26.56136 | 146.96143 | 7979 ft | 169 kts | 283° |
| 2026-04-25 13:15 | -26.55886 | 146.94864 | 7977 ft | 168 kts | 283° |
| 2026-04-25 13:15 | -26.55636 | 146.93586 | 7994 ft | 168 kts | 283° |
| 2026-04-25 13:15 | -26.55385 | 146.92308 | 7993 ft | 169 kts | 283° |
| 2026-04-25 13:15 | -26.55134 | 146.91028 | 7988 ft | 169 kts | 283° |
| 2026-04-25 13:16 | -26.54881 | 146.89740 | 7990 ft | 170 kts | 283° |
| 2026-04-25 13:16 | -26.54629 | 146.88453 | 7992 ft | 169 kts | 283° |
| 2026-04-25 13:16 | -26.54377 | 146.87169 | 7988 ft | 169 kts | 283° |
| 2026-04-25 13:16 | -26.54124 | 146.85885 | 7995 ft | 169 kts | 283° |
| 2026-04-25 13:17 | -26.53874 | 146.84609 | 7991 ft | 168 kts | 283° |
| 2026-04-25 13:17 | -26.53624 | 146.83336 | 7987 ft | 168 kts | 283° |
| 2026-04-25 13:17 | -26.53375 | 146.82074 | 7996 ft | 168 kts | 283° |
| 2026-04-25 13:17 | -26.53124 | 146.80798 | 7990 ft | 168 kts | 283° |
| 2026-04-25 13:18 | -26.52874 | 146.79523 | 7992 ft | 168 kts | 283° |
| 2026-04-25 13:18 | -26.52622 | 146.78249 | 7992 ft | 168 kts | 283° |
| 2026-04-25 13:18 | -26.52371 | 146.76975 | 7993 ft | 168 kts | 283° |
| 2026-04-25 13:18 | -26.52118 | 146.75693 | 7995 ft | 169 kts | 283° |
| 2026-04-25 13:19 | -26.51866 | 146.74411 | 7992 ft | 168 kts | 283° |
| 2026-04-25 13:19 | -26.51615 | 146.73141 | 7990 ft | 167 kts | 283° |
| 2026-04-25 13:19 | -26.51365 | 146.71871 | 7988 ft | 167 kts | 283° |
| 2026-04-25 13:19 | -26.51199 | 146.71031 | 7992 ft | 167 kts | 283° |
| 2026-04-25 13:20 | -26.50863 | 146.69336 | 7987 ft | 166 kts | 283° |
| 2026-04-25 13:20 | -26.50617 | 146.68087 | 7993 ft | 167 kts | 283° |
| 2026-04-25 13:20 | -26.50365 | 146.66819 | 7995 ft | 168 kts | 283° |
| 2026-04-25 13:20 | -26.50114 | 146.65549 | 7996 ft | 168 kts | 283° |
| 2026-04-25 13:21 | -26.49863 | 146.64281 | 7998 ft | 167 kts | 283° |
| 2026-04-25 13:21 | -26.49610 | 146.63008 | 7993 ft | 168 kts | 283° |
| 2026-04-25 13:21 | -26.49358 | 146.61734 | 7994 ft | 168 kts | 283° |
| 2026-04-25 13:21 | -26.49107 | 146.60469 | 7988 ft | 167 kts | 283° |
| 2026-04-25 13:22 | -26.48856 | 146.59200 | 7992 ft | 167 kts | 283° |
| 2026-04-25 13:22 | -26.48604 | 146.57935 | 7991 ft | 167 kts | 283° |
| 2026-04-25 13:22 | -26.48351 | 146.56662 | 7991 ft | 167 kts | 283° |
| 2026-04-25 13:23 | -26.47849 | 146.54134 | 7994 ft | 167 kts | 283° |
| 2026-04-25 13:23 | -26.47599 | 146.52881 | 7996 ft | 168 kts | 283° |
| 2026-04-25 13:23 | -26.47344 | 146.51599 | 7993 ft | 167 kts | 283° |
| 2026-04-25 13:23 | -26.47098 | 146.50359 | 7990 ft | 165 kts | 283° |
| 2026-04-25 13:24 | -26.46848 | 146.49105 | 7988 ft | 165 kts | 283° |
| 2026-04-25 13:24 | -26.46597 | 146.47850 | 7985 ft | 166 kts | 283° |
| 2026-04-25 13:24 | -26.46348 | 146.46594 | 7989 ft | 165 kts | 283° |
| 2026-04-25 13:24 | -26.46099 | 146.45349 | 7987 ft | 164 kts | 283° |
| 2026-04-25 13:25 | -26.45850 | 146.44104 | 7987 ft | 165 kts | 283° |
| 2026-04-25 13:25 | -26.45600 | 146.42854 | 7989 ft | 165 kts | 283° |
| 2026-04-25 13:25 | -26.45350 | 146.41601 | 7984 ft | 165 kts | 283° |
| 2026-04-25 13:25 | -26.45101 | 146.40355 | 7987 ft | 165 kts | 283° |
| 2026-04-25 13:26 | -26.44851 | 146.39106 | 7990 ft | 165 kts | 283° |
| 2026-04-25 13:26 | -26.44601 | 146.37852 | 7989 ft | 166 kts | 283° |
| 2026-04-25 13:26 | -26.44351 | 146.36602 | 7985 ft | 165 kts | 283° |
| 2026-04-25 13:26 | -26.44102 | 146.35359 | 7992 ft | 164 kts | 283° |
| 2026-04-25 13:27 | -26.43852 | 146.34112 | 7987 ft | 165 kts | 283° |
| 2026-04-25 13:27 | -26.43601 | 146.32863 | 7991 ft | 164 kts | 283° |
| 2026-04-25 13:27 | -26.43352 | 146.31618 | 7990 ft | 165 kts | 283° |
| 2026-04-25 13:27 | -26.43103 | 146.30375 | 7986 ft | 164 kts | 283° |
| 2026-04-25 13:28 | -26.42852 | 146.29125 | 7985 ft | 165 kts | 283° |
| 2026-04-25 13:28 | -26.42771 | 146.28721 | 7983 ft | 164 kts | 283° |
| 2026-04-25 13:28 | -26.42356 | 146.26658 | 7987 ft | 164 kts | 283° |
| 2026-04-25 13:28 | -26.42066 | 146.25430 | 7979 ft | 163 kts | 295° |
| 2026-04-25 13:29 | -26.41327 | 146.24525 | 7982 ft | 156 kts | 335° |
| 2026-04-25 13:29 | -26.40430 | 146.23848 | 7980 ft | 160 kts | 314° |
| 2026-04-25 13:29 | -26.40006 | 146.22700 | 7985 ft | 163 kts | 280° |
| 2026-04-25 13:30 | -26.39156 | 146.20330 | 7803 ft | 171 kts | 300° |
| 2026-04-25 13:30 | -26.38594 | 146.19140 | 7690 ft | 175 kts | 299° |
| 2026-04-25 13:30 | -26.38033 | 146.17932 | 7571 ft | 176 kts | 299° |
| 2026-04-25 13:31 | -26.36902 | 146.15492 | 7339 ft | 178 kts | 300° |
| 2026-04-25 13:31 | -26.36328 | 146.14257 | 7217 ft | 179 kts | 300° |
| 2026-04-25 13:31 | -26.35762 | 146.13039 | 7093 ft | 180 kts | 300° |
| 2026-04-25 13:31 | -26.35188 | 146.11801 | 6978 ft | 179 kts | 300° |
| 2026-04-25 13:32 | -26.34614 | 146.10568 | 6864 ft | 179 kts | 300° |
| 2026-04-25 13:32 | -26.34039 | 146.09332 | 6741 ft | 179 kts | 300° |
| 2026-04-25 13:32 | -26.33319 | 146.08224 | 6597 ft | 176 kts | 324° |
| 2026-04-25 13:32 | -26.32237 | 146.07712 | 6434 ft | 164 kts | 359° |
| 2026-04-25 13:33 | -26.31198 | 146.07902 | 6286 ft | 143 kts | 29° |
| 2026-04-25 13:33 | -26.30438 | 146.08494 | 6113 ft | 127 kts | 52° |
| 2026-04-25 13:33 | -26.29990 | 146.09298 | 5898 ft | 119 kts | 71° |
| 2026-04-25 13:33 | -26.29796 | 146.09860 | 5765 ft | 117 kts | 72° |
| 2026-04-25 13:34 | -26.29382 | 146.10968 | 5499 ft | 115 kts | 71° |
| 2026-04-25 13:34 | -26.29071 | 146.11791 | 5298 ft | 115 kts | 71° |
| 2026-04-25 13:34 | -26.28773 | 146.12616 | 5099 ft | 113 kts | 76° |
| 2026-04-25 13:34 | -26.28890 | 146.13445 | 4874 ft | 115 kts | 118° |
| 2026-04-25 13:35 | -26.29477 | 146.14077 | 4671 ft | 118 kts | 134° |
| 2026-04-25 13:35 | -26.30084 | 146.14686 | 4479 ft | 117 kts | 132° |
| 2026-04-25 13:35 | -26.30685 | 146.15302 | 4281 ft | 118 kts | 132° |
| 2026-04-25 13:35 | -26.31287 | 146.15923 | 4081 ft | 117 kts | 132° |
| 2026-04-25 13:36 | -26.31866 | 146.16517 | 3880 ft | 111 kts | 132° |
| 2026-04-25 13:36 | -26.32406 | 146.17072 | 3684 ft | 101 kts | 131° |
| 2026-04-25 13:36 | -26.32910 | 146.17594 | 3486 ft | 98 kts | 131° |
| 2026-04-25 13:36 | -26.33402 | 146.18103 | 3271 ft | 95 kts | 131° |
| 2026-04-25 13:37 | -26.33879 | 146.18597 | 3071 ft | 94 kts | 131° |
| 2026-04-25 13:37 | -26.34356 | 146.19093 | 2871 ft | 93 kts | 131° |
| 2026-04-25 13:37 | -26.34812 | 146.19562 | 2789 ft | 82 kts | 131° |
| 2026-04-25 13:37 | -26.35214 | 146.19963 | 2730 ft | 77 kts | 135° |
| 2026-04-25 13:38 | -26.35642 | 146.20353 | 2582 ft | 80 kts | 131° |
| 2026-04-25 13:38 | -26.36051 | 146.20772 | 2484 ft | 80 kts | 132° |
| 2026-04-25 13:38 | -26.36470 | 146.21174 | 2413 ft | 79 kts | 133° |
| 2026-04-25 13:38 | -26.36895 | 146.21547 | 2379 ft | 79 kts | 139° |
| 2026-04-25 13:39 | -26.37396 | 146.21879 | 2245 ft | 86 kts | 141° |
| 2026-04-25 13:39 | -26.37881 | 146.22233 | 2140 ft | 82 kts | 131° |
| 2026-04-25 13:39 | -26.38243 | 146.22742 | 1965 ft | 86 kts | 123° |
| 2026-04-25 13:39 | -26.38588 | 146.23283 | 1791 ft | 84 kts | 123° |
| 2026-04-25 13:40 | -26.38942 | 146.23800 | 1693 ft | 83 kts | 125° |
| 2026-04-25 13:40 | -26.39351 | 146.24273 | 1585 ft | 86 kts | 135° |
| 2026-04-25 13:40 | -26.39748 | 146.24692 | 1517 ft | 70 kts | 137° |
| 2026-04-25 13:40 | -26.40107 | 146.25061 | 1348 ft | 71 kts | 140° |
| 2026-04-25 13:41 | -26.40465 | 146.25426 | 1187 ft | 70 kts | 143° |
| 2026-04-25 13:41 | -26.40792 | 146.25768 | 1017 ft | 64 kts | 139° |
| 2026-04-25 13:41 | -26.41061 | 146.26042 | 995 ft | 39 kts | 138° |
| 2026-04-25 13:41 | -26.41242 | 146.26195 | 997 ft | 28 kts | 176° |
| 2026-04-25 13:42 | -26.41383 | 146.26115 | 999 ft | 21 kts | 246° |
| 2026-04-25 13:42 | -26.41374 | 146.26001 | 999 ft | 0 kts | 310° |